Time;durP1;ratioP1;P1;durP2;ratioP2;P2;SDS_P1;SDS_P2;PMS_P1;PMS_P2;Temp;Humidity;BMP_temperature;BMP_pressure;BME280_temperature;BME280_humidity;BME280_pressure;Samples;Min_cycle;Max_cycle;Signal;HPM_P1;HPM_P2
2022/09/17 00:00:57;;;;;;;9.43;2.37;;;;;;;;;;5052367;28;20219;-75
2022/09/17 00:03:27;;;;;;;9.83;2.10;;;;;;;;;;5047782;28;20234;-77
2022/09/17 00:06:01;;;;;;;6.33;2.00;;;;;;;;;;5049914;28;20235;-75
2022/09/17 00:08:30;;;;;;;10.40;2.37;;;;;;;;;;5052391;28;20616;-75
2022/09/17 00:10:58;;;;;;;6.07;2.03;;;;;;;;;;5043324;28;20732;-76
2022/09/17 00:13:27;;;;;;;8.47;2.27;;;;;;;;;;5031456;28;20254;-76
2022/09/17 00:15:55;;;;;;;9.73;2.17;;;;;;;;;;5036276;28;20295;-76
2022/09/17 00:18:23;;;;;;;8.20;2.30;;;;;;;;;;5048268;28;20210;-76
2022/09/17 00:20:52;;;;;;;7.17;2.43;;;;;;;;;;5048205;28;20306;-76
2022/09/17 00:23:22;;;;;;;9.60;2.33;;;;;;;;;;5049271;28;20364;-77
2022/09/17 00:25:50;;;;;;;8.33;2.40;;;;;;;;;;5067589;28;20753;-77
2022/09/17 00:28:18;;;;;;;10.00;2.50;;;;;;;;;;5056532;28;20250;-76
2022/09/17 00:30:47;;;;;;;9.57;2.27;;;;;;;;;;5049865;28;20231;-76
2022/09/17 00:33:16;;;;;;;11.83;2.90;;;;;;;;;;5045095;28;20310;-77
2022/09/17 00:35:45;;;;;;;13.17;2.90;;;;;;;;;;5048130;28;20230;-77
2022/09/17 00:38:13;;;;;;;7.57;2.83;;;;;;;;;;5040786;28;20223;-77
2022/09/17 00:40:43;;;;;;;7.00;2.67;;;;;;;;;;5051623;28;20246;-76
2022/09/17 00:43:12;;;;;;;9.93;2.80;;;;;;;;;;5052816;28;20270;-77
2022/09/17 00:45:40;;;;;;;7.73;2.50;;;;;;;;;;5056216;28;20246;-76
2022/09/17 00:48:10;;;;;;;8.10;2.80;;;;;;;;;;5056348;28;20286;-76
2022/09/17 00:50:40;;;;;;;14.27;3.20;;;;;;;;;;5056504;28;20635;-76
2022/09/17 00:53:11;;;;;;;11.53;3.00;;;;;;;;;;5056778;28;20265;-76
2022/09/17 00:55:40;;;;;;;13.50;2.97;;;;;;;;;;5056761;28;20724;-77
2022/09/17 00:58:12;;;;;;;10.47;3.17;;;;;;;;;;5056570;28;20287;-76
2022/09/17 01:00:41;;;;;;;10.63;3.20;;;;;;;;;;5056476;28;20235;-77
2022/09/17 01:03:09;;;;;;;13.27;2.90;;;;;;;;;;5055853;28;20234;-76
2022/09/17 01:05:41;;;;;;;9.63;2.93;;;;;;;;;;5069890;28;20233;-77
2022/09/17 01:08:14;;;;;;;11.27;3.20;;;;;;;;;;5052899;28;20668;-77
2022/09/17 01:10:54;;;;;;;12.70;3.50;;;;;;;;;;5055951;28;20273;-77
2022/09/17 01:13:29;;;;;;;14.67;3.47;;;;;;;;;;5056531;28;20262;-77
2022/09/17 01:16:01;;;;;;;14.40;3.40;;;;;;;;;;5039756;28;20229;-76
2022/09/17 01:18:36;;;;;;;11.13;3.67;;;;;;;;;;5055912;28;20207;-77
2022/09/17 01:21:25;;;;;;;12.63;3.17;;;;;;;;;;5056091;28;20250;-76
2022/09/17 01:24:06;;;;;;;12.43;3.17;;;;;;;;;;5056538;28;20257;-77
2022/09/17 01:26:49;;;;;;;13.73;3.10;;;;;;;;;;5050735;28;20702;-77
2022/09/17 01:29:29;;;;;;;11.53;3.50;;;;;;;;;;5056010;28;20713;-76
2022/09/17 01:32:00;;;;;;;9.13;2.77;;;;;;;;;;5065914;28;20313;-76
2022/09/17 01:34:31;;;;;;;13.37;3.50;;;;;;;;;;5076270;28;20644;-76
2022/09/17 01:37:03;;;;;;;13.67;4.00;;;;;;;;;;5048253;28;20283;-76
2022/09/17 01:39:34;;;;;;;12.37;3.13;;;;;;;;;;5048702;28;20234;-77
2022/09/17 01:42:08;;;;;;;12.60;3.10;;;;;;;;;;5056267;28;20292;-77
2022/09/17 01:44:38;;;;;;;13.67;2.80;;;;;;;;;;5043678;28;20241;-76
2022/09/17 01:47:10;;;;;;;13.07;3.13;;;;;;;;;;5048278;28;20614;-77
2022/09/17 01:49:39;;;;;;;13.50;3.80;;;;;;;;;;5049385;28;20235;-76
2022/09/17 01:52:09;;;;;;;9.90;2.93;;;;;;;;;;5055629;28;20326;-76
2022/09/17 01:54:40;;;;;;;10.47;3.20;;;;;;;;;;5040057;28;20736;-76
2022/09/17 01:57:10;;;;;;;10.50;2.97;;;;;;;;;;5035504;28;20695;-77
2022/09/17 01:59:41;;;;;;;11.43;2.87;;;;;;;;;;5049449;28;20293;-77
2022/09/17 02:02:14;;;;;;;13.80;3.43;;;;;;;;;;5055453;28;20266;-77
2022/09/17 02:04:45;;;;;;;18.03;3.10;;;;;;;;;;5055578;28;20438;-75
2022/09/17 02:07:15;;;;;;;11.53;2.97;;;;;;;;;;5051015;28;20282;-76
2022/09/17 02:09:47;;;;;;;14.20;3.20;;;;;;;;;;5054862;28;20652;-76
2022/09/17 02:12:19;;;;;;;13.03;2.93;;;;;;;;;;5054295;28;20310;-77
2022/09/17 02:14:49;;;;;;;16.67;3.17;;;;;;;;;;5055152;28;20282;-76
2022/09/17 02:17:21;;;;;;;12.30;2.97;;;;;;;;;;5054624;28;20231;-77
2022/09/17 02:19:49;;;;;;;9.40;3.10;;;;;;;;;;5054947;28;20238;-77
2022/09/17 02:22:22;;;;;;;17.10;2.50;;;;;;;;;;5054475;28;20230;-77
2022/09/17 02:24:55;;;;;;;11.00;3.20;;;;;;;;;;5054582;28;20237;-76
2022/09/17 02:27:31;;;;;;;8.47;2.77;;;;;;;;;;5054471;28;20298;-77
2022/09/17 02:29:59;;;;;;;12.97;2.97;;;;;;;;;;5054617;28;20234;-77
2022/09/17 02:32:29;;;;;;;10.93;2.77;;;;;;;;;;5054261;28;20654;-76
2022/09/17 02:34:57;;;;;;;10.90;2.70;;;;;;;;;;5055003;28;20203;-76
2022/09/17 02:37:26;;;;;;;14.00;3.30;;;;;;;;;;5053896;28;20203;-76
2022/09/17 02:39:55;;;;;;;9.20;2.77;;;;;;;;;;5054126;28;20664;-76
2022/09/17 02:42:29;;;;;;;12.43;3.07;;;;;;;;;;5034359;28;20236;-77
2022/09/17 02:45:01;;;;;;;11.40;2.60;;;;;;;;;;5034104;28;20219;-76
2022/09/17 02:47:39;;;;;;;14.17;2.60;;;;;;;;;;5049625;28;20238;-76
2022/09/17 02:50:13;;;;;;;13.23;2.80;;;;;;;;;;5053933;28;20656;-76
2022/09/17 02:52:47;;;;;;;13.60;2.90;;;;;;;;;;5053422;28;20245;-75
2022/09/17 02:55:18;;;;;;;11.07;2.50;;;;;;;;;;5054173;28;20226;-76
2022/09/17 02:57:48;;;;;;;10.10;3.00;;;;;;;;;;5054501;28;20511;-76
2022/09/17 03:00:18;;;;;;;13.87;2.97;;;;;;;;;;5053569;28;20241;-76
2022/09/17 03:02:49;;;;;;;13.60;2.90;;;;;;;;;;5053986;28;20254;-76
2022/09/17 03:05:19;;;;;;;11.00;3.20;;;;;;;;;;5054299;28;20222;-77
2022/09/17 03:07:47;;;;;;;11.13;3.00;;;;;;;;;;5054123;28;20660;-76
2022/09/17 03:10:16;;;;;;;12.13;3.03;;;;;;;;;;5054205;28;20211;-76
2022/09/17 03:12:44;;;;;;;9.90;2.93;;;;;;;;;;5053347;28;20226;-76
2022/09/17 03:15:13;;;;;;;14.20;3.20;;;;;;;;;;5033645;28;20239;-77
2022/09/17 03:17:41;;;;;;;15.73;3.07;;;;;;;;;;5033814;28;20546;-76
2022/09/17 03:20:12;;;;;;;15.37;2.90;;;;;;;;;;5052428;28;20231;-76
2022/09/17 03:22:43;;;;;;;10.70;2.93;;;;;;;;;;5041142;28;20262;-76
2022/09/17 03:25:12;;;;;;;16.90;3.43;;;;;;;;;;5053496;28;20199;-77
2022/09/17 03:27:40;;;;;;;16.83;3.37;;;;;;;;;;5053419;28;20238;-77
2022/09/17 03:30:09;;;;;;;16.73;3.13;;;;;;;;;;5053464;28;20218;-76
2022/09/17 03:32:37;;;;;;;13.90;3.13;;;;;;;;;;5053093;28;20254;-76
2022/09/17 03:35:06;;;;;;;14.40;3.30;;;;;;;;;;5052875;28;20290;-76
2022/09/17 03:37:35;;;;;;;13.77;3.43;;;;;;;;;;5050842;28;20257;-76
2022/09/17 03:40:04;;;;;;;15.20;3.27;;;;;;;;;;5053206;28;20206;-76
2022/09/17 03:42:32;;;;;;;16.57;3.53;;;;;;;;;;5053466;28;20245;-76
2022/09/17 03:45:01;;;;;;;21.20;3.63;;;;;;;;;;5051153;28;20290;-76
2022/09/17 03:47:29;;;;;;;14.57;3.40;;;;;;;;;;5053280;28;20255;-77
2022/09/17 03:49:58;;;;;;;20.20;3.43;;;;;;;;;;5063161;28;20287;-76
2022/09/17 03:52:26;;;;;;;12.63;2.87;;;;;;;;;;5053993;28;20254;-76
2022/09/17 03:54:56;;;;;;;14.13;3.43;;;;;;;;;;5053359;28;20298;-77
2022/09/17 03:57:24;;;;;;;15.37;3.23;;;;;;;;;;5053429;28;20700;-77
2022/09/17 03:59:53;;;;;;;17.83;3.77;;;;;;;;;;5062846;28;20287;-76
2022/09/17 04:02:21;;;;;;;15.30;3.13;;;;;;;;;;5053156;28;20277;-76
2022/09/17 04:04:51;;;;;;;19.03;3.50;;;;;;;;;;5040769;28;20216;-77
2022/09/17 04:07:19;;;;;;;12.23;3.10;;;;;;;;;;5053617;28;20199;-76
2022/09/17 04:09:47;;;;;;;12.43;2.67;;;;;;;;;;5048174;28;20298;-77
2022/09/17 04:12:17;;;;;;;15.83;3.23;;;;;;;;;;5033466;28;20314;-77
2022/09/17 04:14:45;;;;;;;12.07;2.80;;;;;;;;;;5033698;28;20299;-77
2022/09/17 04:17:17;;;;;;;11.77;2.93;;;;;;;;;;5041051;28;20211;-76
2022/09/17 04:19:45;;;;;;;17.60;3.87;;;;;;;;;;5063118;28;20195;-76
2022/09/17 04:22:13;;;;;;;13.70;3.00;;;;;;;;;;5057510;28;20314;-77
2022/09/17 04:24:42;;;;;;;16.37;3.10;;;;;;;;;;5057484;28;20306;-76
2022/09/17 04:27:10;;;;;;;12.17;3.10;;;;;;;;;;5057657;28;20626;-76
2022/09/17 04:29:40;;;;;;;13.37;3.00;;;;;;;;;;5057066;28;20238;-76
2022/09/17 04:32:08;;;;;;;16.60;3.27;;;;;;;;;;5056115;28;20251;-77
2022/09/17 04:34:37;;;;;;;17.67;3.33;;;;;;;;;;5056982;28;20230;-76
2022/09/17 04:37:05;;;;;;;14.90;3.03;;;;;;;;;;5057229;28;20230;-76
2022/09/17 04:39:34;;;;;;;15.23;3.00;;;;;;;;;;5057501;28;20249;-76
2022/09/17 04:42:02;;;;;;;11.00;2.60;;;;;;;;;;5057276;28;20265;-76
2022/09/17 04:44:31;;;;;;;14.77;2.77;;;;;;;;;;5057038;28;20764;-76
2022/09/17 04:47:01;;;;;;;14.07;2.90;;;;;;;;;;5057433;28;20631;-77
2022/09/17 04:49:29;;;;;;;13.77;3.00;;;;;;;;;;5056983;28;20635;-76
2022/09/17 04:51:58;;;;;;;10.93;2.73;;;;;;;;;;5056504;28;20308;-76
2022/09/17 04:54:26;;;;;;;15.93;3.53;;;;;;;;;;5056942;28;20704;-76
2022/09/17 04:56:55;;;;;;;11.77;2.87;;;;;;;;;;5057070;28;20207;-76
2022/09/17 04:59:23;;;;;;;13.73;3.30;;;;;;;;;;5056651;28;20298;-76
2022/09/17 05:01:51;;;;;;;12.00;3.07;;;;;;;;;;5056694;28;20317;-76
2022/09/17 05:04:21;;;;;;;10.77;2.60;;;;;;;;;;5056851;28;20696;-77
2022/09/17 05:06:49;;;;;;;13.87;2.97;;;;;;;;;;5056755;28;20231;-77
2022/09/17 05:09:18;;;;;;;14.13;3.07;;;;;;;;;;5056777;28;20617;-76
2022/09/17 05:11:47;;;;;;;12.73;2.63;;;;;;;;;;5055957;28;20316;-77
2022/09/17 05:14:15;;;;;;;11.00;2.90;;;;;;;;;;5056873;28;20271;-77
2022/09/17 05:16:43;;;;;;;11.10;2.77;;;;;;;;;;5056469;28;20199;-77
2022/09/17 05:19:12;;;;;;;11.63;2.83;;;;;;;;;;5056481;28;20214;-76
2022/09/17 05:21:41;;;;;;;10.43;2.63;;;;;;;;;;5056424;28;20649;-76
2022/09/17 05:24:10;;;;;;;12.27;3.33;;;;;;;;;;5056216;28;20659;-75
2022/09/17 05:26:42;;;;;;;13.17;2.87;;;;;;;;;;5056022;28;20737;-76
2022/09/17 05:29:11;;;;;;;14.97;2.50;;;;;;;;;;5055841;28;20215;-76
2022/09/17 05:31:39;;;;;;;12.57;2.70;;;;;;;;;;5055197;28;20253;-76
2022/09/17 05:34:07;;;;;;;10.63;2.27;;;;;;;;;;5056246;28;20198;-76
2022/09/17 05:36:36;;;;;;;14.83;2.80;;;;;;;;;;5055620;28;20301;-76
2022/09/17 05:39:05;;;;;;;13.07;3.17;;;;;;;;;;5056664;28;20281;-76
2022/09/17 05:41:34;;;;;;;14.37;2.80;;;;;;;;;;5056397;28;20249;-76
2022/09/17 05:44:03;;;;;;;16.80;3.33;;;;;;;;;;5055783;28;20299;-76
2022/09/17 05:46:31;;;;;;;12.07;2.57;;;;;;;;;;5056308;28;20608;-76
2022/09/17 05:49:00;;;;;;;14.13;3.10;;;;;;;;;;5055714;28;20249;-76
2022/09/17 05:51:28;;;;;;;11.90;2.63;;;;;;;;;;5056120;28;20658;-76
2022/09/17 05:53:57;;;;;;;11.67;2.90;;;;;;;;;;5055866;28;20290;-75
2022/09/17 05:56:26;;;;;;;13.00;2.97;;;;;;;;;;5053903;28;20242;-76
2022/09/17 05:58:56;;;;;;;14.83;3.17;;;;;;;;;;5035255;28;20207;-76
2022/09/17 06:01:24;;;;;;;12.50;2.60;;;;;;;;;;5035969;28;20227;-76
2022/09/17 06:03:53;;;;;;;15.47;2.70;;;;;;;;;;5035520;28;20310;-76
2022/09/17 06:06:22;;;;;;;11.73;2.70;;;;;;;;;;5049961;28;20289;-76
2022/09/17 06:08:50;;;;;;;13.13;2.70;;;;;;;;;;5055232;28;20207;-76
2022/09/17 06:11:18;;;;;;;10.30;2.33;;;;;;;;;;5054258;28;20297;-76
2022/09/17 06:13:51;;;;;;;10.97;2.83;;;;;;;;;;5054776;28;20710;-75
2022/09/17 06:16:21;;;;;;;8.77;2.50;;;;;;;;;;5035900;28;20302;-76
2022/09/17 06:18:51;;;;;;;14.40;3.07;;;;;;;;;;5043751;28;20207;-76
2022/09/17 06:21:21;;;;;;;16.60;2.93;;;;;;;;;;5054498;28;20245;-76
2022/09/17 06:23:50;;;;;;;10.57;2.57;;;;;;;;;;5054392;28;20660;-76
2022/09/17 06:26:18;;;;;;;10.77;2.97;;;;;;;;;;5048428;28;20290;-76
2022/09/17 06:28:48;;;;;;;15.60;3.03;;;;;;;;;;5054671;28;20724;-76
2022/09/17 06:31:17;;;;;;;16.23;2.90;;;;;;;;;;5054754;28;20210;-76
2022/09/17 06:33:47;;;;;;;19.30;2.97;;;;;;;;;;5054617;28;20582;-76
2022/09/17 06:36:15;;;;;;;10.13;2.30;;;;;;;;;;5054524;28;20215;-76
2022/09/17 06:38:43;;;;;;;9.17;2.40;;;;;;;;;;5054752;28;20260;-76
2022/09/17 06:41:13;;;;;;;12.43;2.90;;;;;;;;;;5053666;28;20254;-76
2022/09/17 06:43:41;;;;;;;8.90;2.83;;;;;;;;;;5054386;28;20636;-76
2022/09/17 06:46:11;;;;;;;8.03;2.07;;;;;;;;;;5054033;28;20211;-76
2022/09/17 06:48:40;;;;;;;12.03;3.20;;;;;;;;;;5034748;28;20231;-76
2022/09/17 06:51:09;;;;;;;11.63;2.57;;;;;;;;;;5044974;28;20278;-75
2022/09/17 06:53:38;;;;;;;10.57;2.73;;;;;;;;;;5054225;28;20723;-76
2022/09/17 06:56:07;;;;;;;10.00;2.80;;;;;;;;;;5054658;28;20207;-76
2022/09/17 06:58:36;;;;;;;8.50;2.27;;;;;;;;;;5054391;28;20579;-75
2022/09/17 07:01:05;;;;;;;11.40;2.60;;;;;;;;;;5053548;28;20207;-76
2022/09/17 07:03:36;;;;;;;11.20;2.67;;;;;;;;;;5054590;28;20211;-76
2022/09/17 07:06:05;;;;;;;8.90;2.40;;;;;;;;;;5054051;28;20250;-76
2022/09/17 07:08:34;;;;;;;13.20;2.90;;;;;;;;;;5054041;28;20238;-77
2022/09/17 07:11:02;;;;;;;14.60;2.97;;;;;;;;;;5054144;28;20234;-76
2022/09/17 07:13:31;;;;;;;10.27;2.47;;;;;;;;;;5040598;28;20204;-77
2022/09/17 07:16:00;;;;;;;10.90;2.47;;;;;;;;;;5046336;28;20196;-77
2022/09/17 07:18:29;;;;;;;8.03;2.60;;;;;;;;;;5053950;28;20183;-77
2022/09/17 07:20:59;;;;;;;10.60;3.07;;;;;;;;;;5033829;28;20247;-77
2022/09/17 07:23:29;;;;;;;13.17;2.70;;;;;;;;;;5032657;28;20196;-75
2022/09/17 07:25:58;;;;;;;14.13;2.67;;;;;;;;;;5032915;28;20223;-76
2022/09/17 07:28:27;;;;;;;10.90;3.00;;;;;;;;;;5033921;28;20203;-76
2022/09/17 07:30:56;;;;;;;11.67;2.67;;;;;;;;;;5041303;28;20206;-76
2022/09/17 07:33:26;;;;;;;9.70;2.33;;;;;;;;;;5053457;28;20229;-76
2022/09/17 07:35:55;;;;;;;10.43;2.43;;;;;;;;;;5053837;28;20560;-77
2022/09/17 07:38:25;;;;;;;11.00;2.47;;;;;;;;;;5054061;28;20276;-76
2022/09/17 07:40:56;;;;;;;10.63;2.60;;;;;;;;;;5053989;28;20183;-75
2022/09/17 07:43:25;;;;;;;8.67;1.90;;;;;;;;;;5053508;28;20234;-76
2022/09/17 07:45:54;;;;;;;14.00;2.57;;;;;;;;;;5053494;28;20250;-76
2022/09/17 07:48:23;;;;;;;10.47;2.07;;;;;;;;;;5053383;28;20732;-76
2022/09/17 07:50:51;;;;;;;9.07;2.17;;;;;;;;;;5053015;28;20235;-76
2022/09/17 07:53:20;;;;;;;8.77;2.33;;;;;;;;;;5052940;28;20255;-77
2022/09/17 07:55:53;;;;;;;8.97;2.03;;;;;;;;;;5054294;28;20665;-77
2022/09/17 07:58:22;;;;;;;9.87;2.07;;;;;;;;;;5053181;28;20229;-77
2022/09/17 08:00:50;;;;;;;9.63;2.03;;;;;;;;;;5053049;28;20293;-76
2022/09/17 08:03:18;;;;;;;9.07;2.30;;;;;;;;;;5052860;28;20715;-76
2022/09/17 08:05:47;;;;;;;8.23;2.20;;;;;;;;;;5053276;28;20265;-76
2022/09/17 08:08:15;;;;;;;9.23;2.00;;;;;;;;;;5052694;28;20254;-77
2022/09/17 08:10:48;;;;;;;9.20;2.30;;;;;;;;;;5053846;28;20242;-77
2022/09/17 08:13:18;;;;;;;7.53;2.00;;;;;;;;;;5053023;28;20648;-76
2022/09/17 08:15:46;;;;;;;7.53;2.10;;;;;;;;;;5053281;28;20195;-76
2022/09/17 08:18:16;;;;;;;7.50;2.07;;;;;;;;;;5053120;28;20203;-76
2022/09/17 08:20:44;;;;;;;9.97;2.37;;;;;;;;;;5053440;28;20238;-76
2022/09/17 08:23:13;;;;;;;11.70;2.63;;;;;;;;;;5053647;28;20223;-76
2022/09/17 08:25:41;;;;;;;12.10;2.67;;;;;;;;;;5053673;28;20313;-76
2022/09/17 08:28:10;;;;;;;10.07;2.13;;;;;;;;;;5053490;28;20254;-76
2022/09/17 08:30:39;;;;;;;8.90;2.30;;;;;;;;;;5053343;28;20203;-76
2022/09/17 08:33:08;;;;;;;8.77;2.40;;;;;;;;;;5052965;28;20259;-77
2022/09/17 08:35:36;;;;;;;8.20;2.03;;;;;;;;;;5053314;28;20712;-76
2022/09/17 08:38:06;;;;;;;10.07;2.20;;;;;;;;;;5053352;28;20261;-76
2022/09/17 08:40:37;;;;;;;8.90;2.80;;;;;;;;;;5053141;28;20235;-76
2022/09/17 08:43:07;;;;;;;8.00;2.10;;;;;;;;;;5053624;28;20277;-77
2022/09/17 08:45:36;;;;;;;9.77;2.40;;;;;;;;;;5053437;28;20254;-76
2022/09/17 08:48:07;;;;;;;9.37;2.17;;;;;;;;;;5052722;28;20298;-76
2022/09/17 08:50:37;;;;;;;8.47;2.67;;;;;;;;;;5053123;28;20199;-77
2022/09/17 08:53:25;;;;;;;11.13;2.43;;;;;;;;;;5053271;28;20310;-76
2022/09/17 08:55:57;;;;;;;11.37;2.33;;;;;;;;;;5053054;28;20260;-75
2022/09/17 08:58:43;;;;;;;8.73;2.40;;;;;;;;;;5053356;28;20188;-77
2022/09/17 09:01:16;;;;;;;9.30;1.97;;;;;;;;;;5049204;28;20207;-76
2022/09/17 09:03:54;;;;;;;8.00;2.07;;;;;;;;;;5052808;28;20274;-76
2022/09/17 09:06:24;;;;;;;10.13;2.23;;;;;;;;;;5056556;28;20226;-76
2022/09/17 09:08:56;;;;;;;10.27;2.50;;;;;;;;;;5056559;28;20238;-76
2022/09/17 09:11:26;;;;;;;8.07;2.40;;;;;;;;;;5056031;28;20660;-77
2022/09/17 09:13:57;;;;;;;10.40;2.50;;;;;;;;;;5056591;28;20218;-76
2022/09/17 09:16:27;;;;;;;10.63;2.30;;;;;;;;;;5055808;28;20184;-76
2022/09/17 09:19:00;;;;;;;8.93;2.30;;;;;;;;;;5056177;28;20203;-76
2022/09/17 09:21:30;;;;;;;10.20;2.53;;;;;;;;;;5056778;28;20231;-77
2022/09/17 09:24:03;;;;;;;8.80;2.03;;;;;;;;;;5056275;28;20317;-76
2022/09/17 09:26:37;;;;;;;10.70;2.23;;;;;;;;;;5055810;28;20298;-76
2022/09/17 09:29:12;;;;;;;8.43;2.27;;;;;;;;;;5056084;28;20233;-76
2022/09/17 09:31:45;;;;;;;11.77;2.30;;;;;;;;;;5055980;28;20313;-75
2022/09/17 09:34:15;;;;;;;9.63;2.53;;;;;;;;;;5055599;28;20194;-75
2022/09/17 09:36:44;;;;;;;6.10;2.00;;;;;;;;;;5055779;28;20644;-77
2022/09/17 09:39:15;;;;;;;8.73;2.27;;;;;;;;;;5056092;28;20230;-76
2022/09/17 09:41:45;;;;;;;4.87;1.90;;;;;;;;;;5055643;28;20310;-76
2022/09/17 09:44:15;;;;;;;8.40;2.13;;;;;;;;;;5056324;28;20211;-76
2022/09/17 09:46:56;;;;;;;8.53;2.10;;;;;;;;;;5055407;28;20212;-76
2022/09/17 09:49:31;;;;;;;9.03;2.30;;;;;;;;;;5055996;28;20199;-77
2022/09/17 09:52:06;;;;;;;6.03;2.00;;;;;;;;;;5055947;28;20261;-76
2022/09/17 09:54:42;;;;;;;7.37;2.60;;;;;;;;;;5055782;28;20208;-76
2022/09/17 09:57:13;;;;;;;7.93;2.07;;;;;;;;;;5055741;28;20270;-76
2022/09/17 09:59:41;;;;;;;10.03;1.87;;;;;;;;;;5055984;28;20238;-76
2022/09/17 10:02:10;;;;;;;14.13;6.00;;;;;;;;;;5055128;28;20305;-76
2022/09/17 10:04:40;;;;;;;8.97;2.37;;;;;;;;;;5055832;28;20207;-74
2022/09/17 10:07:10;;;;;;;5.57;1.80;;;;;;;;;;5055615;28;20227;-76
2022/09/17 10:09:39;;;;;;;7.03;1.70;;;;;;;;;;5055392;28;20234;-76
2022/09/17 10:12:16;;;;;;;6.07;1.80;;;;;;;;;;5054374;28;20280;-76
2022/09/17 10:14:45;;;;;;;21.67;6.53;;;;;;;;;;5054860;28;20206;-77
2022/09/17 10:17:31;;;;;;;8.10;1.93;;;;;;;;;;5054099;28;20249;-76
2022/09/17 10:20:14;;;;;;;7.33;1.60;;;;;;;;;;5055195;28;20234;-76
2022/09/17 10:22:49;;;;;;;4.57;1.80;;;;;;;;;;5055307;28;20595;-77
2022/09/17 10:25:27;;;;;;;6.70;1.70;;;;;;;;;;5055150;28;20207;-77
2022/09/17 10:27:56;;;;;;;5.80;1.60;;;;;;;;;;5054418;28;20203;-76
2022/09/17 10:30:24;;;;;;;8.00;1.97;;;;;;;;;;5053700;28;20314;-76
2022/09/17 10:33:16;;;;;;;7.50;2.10;;;;;;;;;;5054035;28;20262;-76
2022/09/17 10:35:57;;;;;;;8.40;2.23;;;;;;;;;;5055016;28;20223;-76
2022/09/17 10:38:28;;;;;;;8.00;2.10;;;;;;;;;;5054564;28;20227;-76
2022/09/17 10:41:12;;;;;;;7.40;1.60;;;;;;;;;;5054379;28;20226;-76
2022/09/17 10:43:41;;;;;;;7.50;1.90;;;;;;;;;;5052821;28;20639;-76
2022/09/17 10:46:11;;;;;;;9.33;1.67;;;;;;;;;;5054469;28;20250;-77
2022/09/17 10:48:42;;;;;;;5.23;1.60;;;;;;;;;;5054858;28;20260;-76
2022/09/17 10:51:20;;;;;;;5.90;2.00;;;;;;;;;;5054306;28;20223;-76
2022/09/17 10:54:07;;;;;;;7.13;1.60;;;;;;;;;;5054516;28;20227;-76
2022/09/17 10:56:38;;;;;;;5.33;1.43;;;;;;;;;;5054799;28;20202;-77
2022/09/17 10:59:18;;;;;;;7.20;1.60;;;;;;;;;;5054181;28;20274;-77
2022/09/17 11:01:54;;;;;;;7.03;1.73;;;;;;;;;;5054123;28;20258;-76
2022/09/17 11:04:26;;;;;;;6.80;1.70;;;;;;;;;;5054306;28;20227;-75
2022/09/17 11:07:12;;;;;;;7.73;1.80;;;;;;;;;;5054235;28;20302;-77
2022/09/17 11:09:47;;;;;;;7.40;1.70;;;;;;;;;;5054652;28;20652;-76
2022/09/17 11:12:24;;;;;;;5.70;1.70;;;;;;;;;;5053996;28;20722;-76
2022/09/17 11:14:57;;;;;;;4.53;1.60;;;;;;;;;;5054193;28;20229;-77
2022/09/17 11:17:32;;;;;;;5.43;1.60;;;;;;;;;;5054485;28;20191;-76
2022/09/17 11:20:03;;;;;;;4.40;1.60;;;;;;;;;;5054097;28;20191;-77
2022/09/17 11:22:39;;;;;;;5.23;1.23;;;;;;;;;;5054334;28;20810;-76
2022/09/17 11:25:16;;;;;;;4.53;1.47;;;;;;;;;;5054484;28;20195;-76
2022/09/17 11:28:03;;;;;;;3.83;1.50;;;;;;;;;;5053861;28;20286;-76
2022/09/17 11:30:34;;;;;;;5.87;1.77;;;;;;;;;;5054045;28;20282;-76
2022/09/17 11:33:20;;;;;;;10.43;2.13;;;;;;;;;;5053877;28;20321;-76
2022/09/17 11:35:50;;;;;;;7.50;1.80;;;;;;;;;;5053681;28;20294;-76
2022/09/17 11:38:22;;;;;;;5.43;1.70;;;;;;;;;;5053998;28;20298;-76
2022/09/17 11:40:53;;;;;;;9.40;2.00;;;;;;;;;;5054475;28;20290;-77
2022/09/17 11:43:27;;;;;;;7.23;2.03;;;;;;;;;;5053716;28;20405;-76
2022/09/17 11:46:08;;;;;;;5.03;1.60;;;;;;;;;;5053878;28;20227;-76
2022/09/17 11:48:40;;;;;;;5.83;1.70;;;;;;;;;;5053968;28;20261;-77
2022/09/17 11:51:13;;;;;;;4.53;1.40;;;;;;;;;;5053957;28;20274;-77
2022/09/17 11:53:45;;;;;;;4.23;1.60;;;;;;;;;;5053959;28;20256;-76
2022/09/17 11:56:17;;;;;;;7.63;1.50;;;;;;;;;;5054077;28;20698;-77
2022/09/17 11:58:49;;;;;;;5.73;1.67;;;;;;;;;;5053432;28;20187;-77
2022/09/17 12:01:19;;;;;;;8.17;1.70;;;;;;;;;;5053774;28;20223;-77
2022/09/17 12:03:50;;;;;;;10.83;2.40;;;;;;;;;;5053915;28;20183;-77
2022/09/17 12:06:23;;;;;;;6.23;1.50;;;;;;;;;;5053921;28;20207;-77
2022/09/17 12:08:57;;;;;;;5.43;1.40;;;;;;;;;;5053493;28;20702;-75
2022/09/17 12:11:30;;;;;;;4.70;1.27;;;;;;;;;;5053760;28;20274;-75
2022/09/17 12:14:01;;;;;;;4.47;1.30;;;;;;;;;;5051280;28;20286;-76
2022/09/17 12:16:32;;;;;;;7.73;1.60;;;;;;;;;;5046411;28;20206;-75
2022/09/17 12:19:03;;;;;;;2.83;1.17;;;;;;;;;;5054065;28;20653;-75
2022/09/17 12:21:36;;;;;;;4.67;1.10;;;;;;;;;;5054614;28;20222;-75
2022/09/17 12:24:11;;;;;;;3.97;1.10;;;;;;;;;;5048266;28;20199;-75
2022/09/17 12:26:52;;;;;;;5.10;1.33;;;;;;;;;;5049254;28;20226;-75
2022/09/17 12:29:30;;;;;;;5.17;1.30;;;;;;;;;;5048436;28;20206;-75
2022/09/17 12:32:01;;;;;;;7.63;2.10;;;;;;;;;;5051069;28;20301;-74
2022/09/17 12:34:35;;;;;;;5.13;1.40;;;;;;;;;;5053178;28;20195;-75
2022/09/17 12:37:09;;;;;;;9.00;2.10;;;;;;;;;;5065283;28;20209;-74
2022/09/17 12:39:48;;;;;;;7.10;1.60;;;;;;;;;;5074815;28;20247;-75
2022/09/17 12:42:22;;;;;;;5.67;1.80;;;;;;;;;;5076986;28;20746;-75
2022/09/17 12:45:01;;;;;;;7.27;1.50;;;;;;;;;;5074496;28;20671;-75
2022/09/17 12:47:45;;;;;;;4.17;1.43;;;;;;;;;;5056353;28;20644;-75
2022/09/17 12:50:20;;;;;;;4.57;1.60;;;;;;;;;;5046471;28;20238;-75
2022/09/17 12:52:58;;;;;;;6.10;1.53;;;;;;;;;;5058960;28;20305;-74
2022/09/17 12:55:39;;;;;;;5.37;1.13;;;;;;;;;;5076620;28;20251;-74
2022/09/17 12:58:12;;;;;;;5.00;1.50;;;;;;;;;;5059735;28;20262;-74
2022/09/17 13:00:43;;;;;;;4.03;1.40;;;;;;;;;;5054111;28;20709;-75
2022/09/17 13:03:16;;;;;;;4.03;1.10;;;;;;;;;;5064466;28;20265;-75
2022/09/17 13:05:57;;;;;;;4.13;1.60;;;;;;;;;;5065516;28;20290;-75
2022/09/17 13:08:40;;;;;;;5.67;1.50;;;;;;;;;;5053424;28;20270;-75
2022/09/17 13:11:29;;;;;;;7.93;1.60;;;;;;;;;;5053859;28;20223;-75
2022/09/17 13:14:01;;;;;;;7.37;1.43;;;;;;;;;;5052339;28;20198;-75
2022/09/17 13:16:35;;;;;;;6.77;1.60;;;;;;;;;;5055603;28;20700;-75
2022/09/17 13:19:06;;;;;;;6.17;1.97;;;;;;;;;;5047509;28;20196;-75
2022/09/17 13:21:53;;;;;;;10.00;2.03;;;;;;;;;;5042293;28;20218;-75
2022/09/17 13:24:23;;;;;;;6.70;1.50;;;;;;;;;;5056056;28;20294;-76
2022/09/17 13:26:53;;;;;;;6.57;1.70;;;;;;;;;;5053459;28;20204;-75
2022/09/17 13:29:40;;;;;;;3.37;1.43;;;;;;;;;;5055914;28;20227;-76
2022/09/17 13:32:10;;;;;;;4.63;1.40;;;;;;;;;;5055397;28;20277;-76
2022/09/17 13:34:39;;;;;;;4.80;1.33;;;;;;;;;;5052003;28;20614;-76
2022/09/17 13:37:18;;;;;;;5.10;1.30;;;;;;;;;;5055093;28;20614;-75
2022/09/17 13:39:49;;;;;;;5.47;1.23;;;;;;;;;;5052790;28;20644;-77
2022/09/17 13:42:20;;;;;;;2.93;1.17;;;;;;;;;;5055264;28;20732;-75
2022/09/17 13:44:51;;;;;;;3.93;1.00;;;;;;;;;;5054803;28;20653;-76
2022/09/17 13:47:23;;;;;;;4.63;1.23;;;;;;;;;;5051974;28;20262;-76
2022/09/17 13:49:53;;;;;;;3.60;1.10;;;;;;;;;;5058252;28;20308;-75
2022/09/17 13:52:39;;;;;;;1.90;1.00;;;;;;;;;;5052780;28;20272;-76
2022/09/17 13:55:08;;;;;;;3.43;1.40;;;;;;;;;;5041805;28;20270;-75
2022/09/17 13:57:46;;;;;;;1.40;0.80;;;;;;;;;;5051655;28;20837;-75
2022/09/17 14:00:31;;;;;;;2.33;1.00;;;;;;;;;;5048281;28;20298;-75
2022/09/17 14:03:27;;;;;;;2.33;1.07;;;;;;;;;;5044603;28;20218;-75
2022/09/17 14:05:57;;;;;;;3.10;1.20;;;;;;;;;;5051577;28;20286;-75
2022/09/17 14:08:29;;;;;;;6.30;1.50;;;;;;;;;;5052555;28;20280;-75
2022/09/17 14:11:02;;;;;;;6.90;1.50;;;;;;;;;;5053435;28;20207;-75
2022/09/17 14:13:41;;;;;;;4.57;1.20;;;;;;;;;;5053688;28;20691;-75
2022/09/17 14:16:34;;;;;;;5.13;1.50;;;;;;;;;;5034278;28;20691;-75
2022/09/17 14:19:06;;;;;;;6.53;1.27;;;;;;;;;;5016868;28;20653;-75
2022/09/17 14:21:36;;;;;;;3.40;1.20;;;;;;;;;;5044223;28;20247;-75
2022/09/17 14:24:23;;;;;;;4.83;1.73;;;;;;;;;;5041963;28;20282;-75
2022/09/17 14:27:13;;;;;;;7.00;1.70;;;;;;;;;;5045281;28;20290;-76
2022/09/17 14:29:53;;;;;;;5.90;1.57;;;;;;;;;;5047059;28;20306;-75
2022/09/17 14:32:28;;;;;;;4.93;1.40;;;;;;;;;;5046857;28;20306;-75
2022/09/17 14:34:58;;;;;;;6.17;1.57;;;;;;;;;;5058435;28;20290;-75
2022/09/17 14:37:27;;;;;;;7.17;1.60;;;;;;;;;;5052481;28;20203;-75
2022/09/17 14:39:56;;;;;;;5.60;1.80;;;;;;;;;;5052056;28;20707;-75
2022/09/17 14:42:27;;;;;;;7.50;1.53;;;;;;;;;;5049430;28;20592;-74
2022/09/17 14:44:58;;;;;;;6.63;1.43;;;;;;;;;;5052691;28;20645;-75
2022/09/17 14:47:27;;;;;;;6.47;1.53;;;;;;;;;;5053459;28;20638;-75
2022/09/17 14:49:55;;;;;;;3.73;1.40;;;;;;;;;;5052777;28;20306;-74
2022/09/17 14:52:27;;;;;;;8.13;1.70;;;;;;;;;;5043222;28;20933;-75
2022/09/17 14:55:13;;;;;;;7.57;1.70;;;;;;;;;;5052921;28;20207;-75
2022/09/17 14:57:42;;;;;;;6.10;1.77;;;;;;;;;;5052252;28;20246;-75
2022/09/17 15:00:17;;;;;;;7.20;1.60;;;;;;;;;;5052693;28;20195;-74
2022/09/17 15:02:45;;;;;;;5.27;1.47;;;;;;;;;;5052013;28;20215;-75